Catàleg de serveis del Meteocat
Campanya meteocatpedra

Dades de l'estació automàtica Gimenells

?
?
Resum diari 21:30 TU
Dades diàries de l'estació meteorològica
Temperatura mitjana 8.8 °C
Temperatura màxima 14.8 °C 14:43 TU
Temperatura mínima 5.1 °C 21:44 TU
Humitat relativa mitjana 83%
Precipitació acumulada 3.9 mm
Ratxa màxima del vent (2 m) 30.2 km/h - 270º 17:03 TU
Irradiació solar global 6.6 MJ/m2

El tram horari està expressat en Temps Universal (TU). Cal sumar una hora en horari d'hivern i dues en horari d'estiu per passar a l'hora oficial.

Gimenells

Metadades estació meteorol´gica
Municipi Gimenells i el Pla de la Font
Comarca Segrià
Altitud 259 m
Data alta 10.12.1996
Estat actual Operativa
Dades de període
Període
TU
TM
°C
TX
°C
TN
°C
HRM
%
PPT
mm
VVM (2 m)
km/h
DVM (2 m)
graus
VVX (2 m)
km/h
RS
W/m2
00:00 - 00:30 8.0 8.4 7.8 81 0.0 2.5 231 5.8 0
00:30 - 01:00 8.0 8.2 7.7 79 0.0 4.0 224 7.9 0
01:00 - 01:30 7.8 8.1 7.7 81 0.0 2.9 235 8.3 0
01:30 - 02:00 7.8 8.2 7.2 82 0.0 2.2 332 6.1 0
02:00 - 02:30 7.5 8.3 7.1 84 0.0 2.5 343 5.4 0
02:30 - 03:00 7.4 7.6 7.2 86 0.0 1.1 304 3.6 0
03:00 - 03:30 6.6 7.4 5.9 89 0.0 0.4 70 3.2 0
03:30 - 04:00 6.2 6.5 5.9 92 0.0 2.5 130 5.0 0
04:00 - 04:30 6.9 7.1 6.6 89 0.0 3.6 144 7.6 0
04:30 - 05:00 7.0 7.0 6.9 90 0.0 2.2 144 4.3 0
05:00 - 05:30 6.9 6.9 6.8 94 0.2 1.8 152 4.3 0
05:30 - 06:00 6.8 6.9 6.6 96 0.3 1.4 110 5.8 0
06:00 - 06:30 6.6 6.6 6.6 98 0.3 1.4 80 4.3 0
06:30 - 07:00 6.5 6.7 6.4 99 0.5 2.5 12 5.4 1
07:00 - 07:30 6.4 6.5 6.4 100 0.5 0.4 88 2.5 5
07:30 - 08:00 6.7 6.8 6.5 100 0.9 0.7 92 3.2 23
08:00 - 08:30 6.9 6.9 6.8 100 1.1 1.1 325 3.6 20
08:30 - 09:00 7.0 7.1 6.9 100 0.1 1.4 295 2.9 28
09:00 - 09:30 7.1 7.2 7.0 100 0.0 1.1 159 3.2 28
09:30 - 10:00 7.4 7.5 7.1 100 0.0 2.9 161 8.3 46
10:00 - 10:30 7.7 7.8 7.5 100 0.0 1.4 239 4.3 101
10:30 - 11:00 8.4 8.9 7.8 99 0.0 2.2 233 5.8 240
11:00 - 11:30 8.9 9.1 8.8 97 0.0 4.0 274 9.0 214
11:30 - 12:00 9.4 10.0 9.1 95 0.0 4.0 258 8.3 314
12:00 - 12:30 10.3 10.7 10.0 90 0.0 5.0 300 11.2 473
12:30 - 13:00 11.4 12.2 10.6 85 0.0 3.2 275 7.9 489
13:00 - 13:30 12.3 13.2 11.8 80 0.0 4.0 240 8.3 435
13:30 - 14:00 13.6 14.0 12.8 76 0.0 3.6 185 10.1 387
14:00 - 14:30 14.1 14.4 13.7 75 0.0 4.7 191 11.2 335
14:30 - 15:00 14.5 14.8 14.1 73 0.0 5.0 231 22.7 258
15:00 - 15:30 14.1 14.4 13.8 50 0.0 17.3 286 28.4 189
15:30 - 16:00 13.5 13.8 12.9 53 0.0 14.8 285 29.5 109
16:00 - 16:30 12.5 12.9 12.0 58 0.0 13.7 270 26.6 31
16:30 - 17:00 11.7 11.9 11.2 61 0.0 14.4 282 24.8 1
17:00 - 17:30 10.8 11.2 10.3 61 0.0 11.5 267 30.2 0
17:30 - 18:00 10.1 10.3 9.8 63 0.0 5.4 271 13.7 0
18:00 - 18:30 10.0 10.2 9.7 63 0.0 6.1 290 13.3 0
18:30 - 19:00 9.8 10.1 9.5 63 0.0 12.2 281 23.4 0
19:00 - 19:30 9.0 9.6 8.3 67 0.0 2.9 296 10.8 0
19:30 - 20:00 8.2 9.0 7.4 70 0.0 3.2 34 11.9 0
20:00 - 20:30 8.7 9.3 7.7 70 0.0 5.4 284 11.9 0
20:30 - 21:00 7.1 7.8 5.6 77 0.0 2.2 205 5.8 0
21:00 - 21:30 5.7 6.2 5.2 86 0.0 1.1 145 4.3 0
21:30 - 22:00 5.5 6.6 5.1 89 0.0 1.8 141 6.1 0

Les dades en taronja només han passat un control de qualitat automàtic. Resta pendent la seva validació definitiva.